Leeward Point Field
MUGM : now visible

Airfield :











YOU CAN JOIN US ON...

 
LOGIN :

Register | Disclaimer

   EN    FR    IT 

 









Legend :    VFR   Marginal VFR   IFR   Intensive IFR   Very Intensive IFR
Visi :
Ceiling :
>= 8 km
>= 3000ft
5 to 8 km
1000 to 3000 ft
1500m to 5 km
500 to 1000 ft
800 to 1500m
200 to 500 ft
< 800m
< 200 ft
Symbols :   Thunderstorms  Fog  Heavy snow  Heavy precipitations  Wind > 20 kt






- Airport Elevation : 56 ft
- IATA code : NBW


MUGM - Leeward Point Field

CURRENT METAR :
  • 190956Z 34007KT 9999 FEW030 FEW250 24/23 A2991 RMK SLP129 T02440233

EXPIRED METARs :
  • 190856Z 35008KT 9999 FEW030 FEW250 25/24 A2990 RMK SLP123 T02500239 55010
  • 190756Z 34007KT 9999 FEW030 FEW250 26/24 A2989 RMK SLP120 T02560239

TAF TAF MUGM
Valid from the 19 at 07:00 until the 20 at 07:00 UTC


1907/2007 35006KT 9999 FEW030 FEW280 QNH2984INS
FM191600 14010KT 9999 FEW030 SCT280 QNH2987INS
FM200100 12005KT 9999 FEW025 SCT280 QNH2988INS
FM200300 32005KT 9999 FEW030 FEW280 QNH2991INS T24/1911Z T32/1917Z FN00085



MET'MAP, your aeronautical weather chart ! - Copyright ORBIFLY December 2007 - Disclaimer

ORBIFLY MET'MAP TEAM :

Programming & Development : Alexandra Zaïnal
Concept & Development : Baudouin d'Aumeries
Co-Development & Prog : Marc-Olivier Méhu
Technical & hardware support : Manuel Goepfert

Contact : metmap@orbifly.com




SOURCES & CREDITS :

   NOAA       Earth
Advisory